sensor_id;sensor_type;location;lat;lon;timestamp;temperature;humidity
14144;DHT22;7152;48.348;10.980;2022-11-10T00:00:19;10.70;99.90
14144;DHT22;7152;48.348;10.980;2022-11-10T00:02:45;10.70;99.90
14144;DHT22;7152;48.348;10.980;2022-11-10T00:05:12;10.70;99.90
14144;DHT22;7152;48.348;10.980;2022-11-10T00:07:39;10.70;99.90
14144;DHT22;7152;48.348;10.980;2022-11-10T00:10:05;10.70;99.90
14144;DHT22;7152;48.348;10.980;2022-11-10T00:12:32;10.70;99.90
14144;DHT22;7152;48.348;10.980;2022-11-10T00:14:58;10.70;99.90
14144;DHT22;7152;48.348;10.980;2022-11-10T00:17:43;10.60;99.90
14144;DHT22;7152;48.348;10.980;2022-11-10T00:20:09;10.60;99.90
14144;DHT22;7152;48.348;10.980;2022-11-10T00:22:36;10.60;99.90
14144;DHT22;7152;48.348;10.980;2022-11-10T00:25:03;10.60;99.90
14144;DHT22;7152;48.348;10.980;2022-11-10T00:27:28;10.60;99.90
14144;DHT22;7152;48.348;10.980;2022-11-10T00:29:55;10.60;99.90
14144;DHT22;7152;48.348;10.980;2022-11-10T00:32:21;10.60;99.90
14144;DHT22;7152;48.348;10.980;2022-11-10T00:34:47;10.70;99.90
14144;DHT22;7152;48.348;10.980;2022-11-10T00:37:12;10.70;99.90
14144;DHT22;7152;48.348;10.980;2022-11-10T00:39:38;10.70;99.90
14144;DHT22;7152;48.348;10.980;2022-11-10T00:42:03;10.70;99.90
14144;DHT22;7152;48.348;10.980;2022-11-10T00:44:29;10.70;99.90
14144;DHT22;7152;48.348;10.980;2022-11-10T00:46:55;10.70;99.90
14144;DHT22;7152;48.348;10.980;2022-11-10T00:49:20;10.70;99.90
14144;DHT22;7152;48.348;10.980;2022-11-10T00:51:46;10.70;99.90
14144;DHT22;7152;48.348;10.980;2022-11-10T00:54:12;10.70;99.90
14144;DHT22;7152;48.348;10.980;2022-11-10T00:56:37;10.70;99.90
14144;DHT22;7152;48.348;10.980;2022-11-10T00:59:03;10.70;99.90
14144;DHT22;7152;48.348;10.980;2022-11-10T01:01:29;10.70;99.90
14144;DHT22;7152;48.348;10.980;2022-11-10T01:03:55;10.70;99.90
14144;DHT22;7152;48.348;10.980;2022-11-10T01:06:21;10.70;99.90
14144;DHT22;7152;48.348;10.980;2022-11-10T01:08:47;10.70;99.90
14144;DHT22;7152;48.348;10.980;2022-11-10T01:11:19;10.70;99.90
14144;DHT22;7152;48.348;10.980;2022-11-10T01:13:45;10.70;99.90
14144;DHT22;7152;48.348;10.980;2022-11-10T01:16:16;10.70;99.90
14144;DHT22;7152;48.348;10.980;2022-11-10T01:18:48;10.70;99.90
14144;DHT22;7152;48.348;10.980;2022-11-10T01:21:14;10.70;99.90
14144;DHT22;7152;48.348;10.980;2022-11-10T01:23:40;10.70;99.90
14144;DHT22;7152;48.348;10.980;2022-11-10T01:26:06;10.70;99.90
14144;DHT22;7152;48.348;10.980;2022-11-10T01:28:34;10.70;99.90
14144;DHT22;7152;48.348;10.980;2022-11-10T01:31:11;10.70;99.90
14144;DHT22;7152;48.348;10.980;2022-11-10T01:33:37;10.60;99.90
14144;DHT22;7152;48.348;10.980;2022-11-10T01:36:03;10.60;99.90
14144;DHT22;7152;48.348;10.980;2022-11-10T01:38:31;10.60;99.90
14144;DHT22;7152;48.348;10.980;2022-11-10T01:40:58;10.60;99.90
14144;DHT22;7152;48.348;10.980;2022-11-10T01:43:26;10.60;99.90
14144;DHT22;7152;48.348;10.980;2022-11-10T01:45:55;10.60;99.90
14144;DHT22;7152;48.348;10.980;2022-11-10T01:48:44;10.60;99.90
14144;DHT22;7152;48.348;10.980;2022-11-10T01:54:04;10.60;99.90
14144;DHT22;7152;48.348;10.980;2022-11-10T01:56:34;10.60;99.90
14144;DHT22;7152;48.348;10.980;2022-11-10T01:59:05;10.60;99.90
14144;DHT22;7152;48.348;10.980;2022-11-10T02:01:33;10.60;99.90
14144;DHT22;7152;48.348;10.980;2022-11-10T02:04:01;10.50;99.90
14144;DHT22;7152;48.348;10.980;2022-11-10T02:06:32;10.40;99.90
14144;DHT22;7152;48.348;10.980;2022-11-10T02:08:59;10.40;99.90
14144;DHT22;7152;48.348;10.980;2022-11-10T02:11:26;10.40;99.90
14144;DHT22;7152;48.348;10.980;2022-11-10T02:13:53;10.40;99.90
14144;DHT22;7152;48.348;10.980;2022-11-10T02:16:18;10.40;99.90
14144;DHT22;7152;48.348;10.980;2022-11-10T02:18:45;10.40;99.90
14144;DHT22;7152;48.348;10.980;2022-11-10T02:21:15;10.40;99.90
14144;DHT22;7152;48.348;10.980;2022-11-10T02:23:47;10.50;99.90
14144;DHT22;7152;48.348;10.980;2022-11-10T02:26:16;10.40;99.90
14144;DHT22;7152;48.348;10.980;2022-11-10T02:28:43;10.40;99.90
14144;DHT22;7152;48.348;10.980;2022-11-10T02:31:09;10.40;99.90
14144;DHT22;7152;48.348;10.980;2022-11-10T02:33:35;10.40;99.90
14144;DHT22;7152;48.348;10.980;2022-11-10T02:36:01;10.40;99.90
14144;DHT22;7152;48.348;10.980;2022-11-10T02:38:27;10.40;99.90
14144;DHT22;7152;48.348;10.980;2022-11-10T02:40:53;10.40;99.90
14144;DHT22;7152;48.348;10.980;2022-11-10T02:43:18;10.40;99.90
14144;DHT22;7152;48.348;10.980;2022-11-10T02:45:44;10.30;99.90
14144;DHT22;7152;48.348;10.980;2022-11-10T02:48:12;10.30;99.90
14144;DHT22;7152;48.348;10.980;2022-11-10T02:50:38;10.30;99.90
14144;DHT22;7152;48.348;10.980;2022-11-10T02:53:05;10.30;99.90
14144;DHT22;7152;48.348;10.980;2022-11-10T02:55:30;10.30;99.90
14144;DHT22;7152;48.348;10.980;2022-11-10T02:57:56;10.20;99.90
14144;DHT22;7152;48.348;10.980;2022-11-10T03:00:22;10.20;99.90
14144;DHT22;7152;48.348;10.980;2022-11-10T03:02:48;10.10;99.90
14144;DHT22;7152;48.348;10.980;2022-11-10T03:05:14;10.10;99.90
14144;DHT22;7152;48.348;10.980;2022-11-10T03:07:40;10.10;99.90
14144;DHT22;7152;48.348;10.980;2022-11-10T03:10:07;10.10;99.90
14144;DHT22;7152;48.348;10.980;2022-11-10T03:12:34;10.10;99.90
14144;DHT22;7152;48.348;10.980;2022-11-10T03:14:59;10.10;99.90
14144;DHT22;7152;48.348;10.980;2022-11-10T03:17:28;10.10;99.90
14144;DHT22;7152;48.348;10.980;2022-11-10T03:19:53;10.20;99.90
14144;DHT22;7152;48.348;10.980;2022-11-10T03:22:19;10.20;99.90
14144;DHT22;7152;48.348;10.980;2022-11-10T03:24:44;10.20;99.90
14144;DHT22;7152;48.348;10.980;2022-11-10T03:27:10;10.20;99.90
14144;DHT22;7152;48.348;10.980;2022-11-10T03:29:36;10.20;99.90
14144;DHT22;7152;48.348;10.980;2022-11-10T03:32:01;10.20;99.90
14144;DHT22;7152;48.348;10.980;2022-11-10T03:34:27;10.10;99.90
14144;DHT22;7152;48.348;10.980;2022-11-10T03:36:52;10.10;99.90
14144;DHT22;7152;48.348;10.980;2022-11-10T03:39:18;10.10;99.90
14144;DHT22;7152;48.348;10.980;2022-11-10T03:41:43;10.10;99.90
14144;DHT22;7152;48.348;10.980;2022-11-10T03:44:09;10.10;99.90
14144;DHT22;7152;48.348;10.980;2022-11-10T03:46:35;10.10;99.90
14144;DHT22;7152;48.348;10.980;2022-11-10T03:49:00;10.10;99.90
14144;DHT22;7152;48.348;10.980;2022-11-10T03:51:26;10.10;99.90
14144;DHT22;7152;48.348;10.980;2022-11-10T03:53:51;10.00;99.90
14144;DHT22;7152;48.348;10.980;2022-11-10T03:56:17;10.00;99.90
14144;DHT22;7152;48.348;10.980;2022-11-10T03:58:43;9.90;99.90
14144;DHT22;7152;48.348;10.980;2022-11-10T04:01:08;9.90;99.90
14144;DHT22;7152;48.348;10.980;2022-11-10T04:03:34;9.90;99.90
14144;DHT22;7152;48.348;10.980;2022-11-10T04:06:00;9.90;99.90
14144;DHT22;7152;48.348;10.980;2022-11-10T04:08:44;9.90;99.90
14144;DHT22;7152;48.348;10.980;2022-11-10T04:11:29;9.90;99.90
14144;DHT22;7152;48.348;10.980;2022-11-10T04:14:14;9.90;99.90
14144;DHT22;7152;48.348;10.980;2022-11-10T04:16:58;9.90;99.90
14144;DHT22;7152;48.348;10.980;2022-11-10T04:19:24;9.90;99.90
14144;DHT22;7152;48.348;10.980;2022-11-10T04:21:50;9.90;99.90
14144;DHT22;7152;48.348;10.980;2022-11-10T04:24:16;9.90;99.90
14144;DHT22;7152;48.348;10.980;2022-11-10T04:26:42;10.00;99.90
14144;DHT22;7152;48.348;10.980;2022-11-10T04:29:10;9.90;99.90
14144;DHT22;7152;48.348;10.980;2022-11-10T04:31:37;9.90;99.90
14144;DHT22;7152;48.348;10.980;2022-11-10T04:34:05;9.90;99.90
14144;DHT22;7152;48.348;10.980;2022-11-10T04:36:33;9.90;99.90
14144;DHT22;7152;48.348;10.980;2022-11-10T04:38:59;9.90;99.90
14144;DHT22;7152;48.348;10.980;2022-11-10T04:41:28;9.90;99.90
14144;DHT22;7152;48.348;10.980;2022-11-10T04:43:57;10.00;99.90
14144;DHT22;7152;48.348;10.980;2022-11-10T04:46:31;9.90;99.90
14144;DHT22;7152;48.348;10.980;2022-11-10T04:48:57;9.90;99.90
14144;DHT22;7152;48.348;10.980;2022-11-10T04:51:28;9.90;99.90
14144;DHT22;7152;48.348;10.980;2022-11-10T04:53:54;9.90;99.90
14144;DHT22;7152;48.348;10.980;2022-11-10T04:56:21;9.90;99.90
14144;DHT22;7152;48.348;10.980;2022-11-10T04:58:48;9.90;99.90
14144;DHT22;7152;48.348;10.980;2022-11-10T05:01:18;9.90;99.90
14144;DHT22;7152;48.348;10.980;2022-11-10T05:03:44;9.90;99.90
14144;DHT22;7152;48.348;10.980;2022-11-10T05:06:10;9.90;99.90
14144;DHT22;7152;48.348;10.980;2022-11-10T05:08:39;9.80;99.90
14144;DHT22;7152;48.348;10.980;2022-11-10T05:11:06;9.80;99.90
14144;DHT22;7152;48.348;10.980;2022-11-10T05:13:32;9.90;99.90
14144;DHT22;7152;48.348;10.980;2022-11-10T05:15:57;9.90;99.90
14144;DHT22;7152;48.348;10.980;2022-11-10T05:18:23;9.90;99.90
14144;DHT22;7152;48.348;10.980;2022-11-10T05:20:49;9.90;99.90
14144;DHT22;7152;48.348;10.980;2022-11-10T05:23:18;9.80;99.90
14144;DHT22;7152;48.348;10.980;2022-11-10T05:26:04;9.80;99.90
14144;DHT22;7152;48.348;10.980;2022-11-10T05:28:30;9.80;99.90
14144;DHT22;7152;48.348;10.980;2022-11-10T05:30:55;9.70;99.90
14144;DHT22;7152;48.348;10.980;2022-11-10T05:33:21;9.70;99.90
14144;DHT22;7152;48.348;10.980;2022-11-10T05:35:50;9.70;99.90
14144;DHT22;7152;48.348;10.980;2022-11-10T05:38:16;9.70;99.90
14144;DHT22;7152;48.348;10.980;2022-11-10T05:40:42;9.60;99.90
14144;DHT22;7152;48.348;10.980;2022-11-10T05:43:09;9.60;99.90
14144;DHT22;7152;48.348;10.980;2022-11-10T05:45:34;9.50;99.90
14144;DHT22;7152;48.348;10.980;2022-11-10T05:48:00;9.50;99.90
14144;DHT22;7152;48.348;10.980;2022-11-10T05:50:26;9.40;99.90
14144;DHT22;7152;48.348;10.980;2022-11-10T05:52:53;9.30;99.90
14144;DHT22;7152;48.348;10.980;2022-11-10T05:55:25;9.30;99.90
14144;DHT22;7152;48.348;10.980;2022-11-10T05:57:52;9.30;99.90
14144;DHT22;7152;48.348;10.980;2022-11-10T06:00:21;9.30;99.90
14144;DHT22;7152;48.348;10.980;2022-11-10T06:05:26;9.20;99.90
14144;DHT22;7152;48.348;10.980;2022-11-10T06:07:52;9.20;99.90
14144;DHT22;7152;48.348;10.980;2022-11-10T06:10:18;9.10;99.90
14144;DHT22;7152;48.348;10.980;2022-11-10T06:12:44;9.10;99.90
14144;DHT22;7152;48.348;10.980;2022-11-10T06:15:09;9.10;99.90
14144;DHT22;7152;48.348;10.980;2022-11-10T06:17:39;9.10;99.90
14144;DHT22;7152;48.348;10.980;2022-11-10T06:20:05;9.00;99.90
14144;DHT22;7152;48.348;10.980;2022-11-10T06:22:31;9.00;99.90
14144;DHT22;7152;48.348;10.980;2022-11-10T06:24:56;9.00;99.90
14144;DHT22;7152;48.348;10.980;2022-11-10T06:27:22;9.00;99.90
14144;DHT22;7152;48.348;10.980;2022-11-10T06:29:47;9.00;99.90
14144;DHT22;7152;48.348;10.980;2022-11-10T06:32:13;9.00;99.90
14144;DHT22;7152;48.348;10.980;2022-11-10T06:34:39;9.00;99.90
14144;DHT22;7152;48.348;10.980;2022-11-10T06:37:05;8.90;99.90
14144;DHT22;7152;48.348;10.980;2022-11-10T06:39:30;8.90;99.90
14144;DHT22;7152;48.348;10.980;2022-11-10T06:41:56;8.80;99.90
14144;DHT22;7152;48.348;10.980;2022-11-10T06:44:21;8.70;99.90
14144;DHT22;7152;48.348;10.980;2022-11-10T06:46:47;8.70;99.90
14144;DHT22;7152;48.348;10.980;2022-11-10T06:49:13;8.60;99.90
14144;DHT22;7152;48.348;10.980;2022-11-10T06:51:38;8.60;99.90
14144;DHT22;7152;48.348;10.980;2022-11-10T06:54:04;8.60;99.90
14144;DHT22;7152;48.348;10.980;2022-11-10T06:56:30;8.60;99.90
14144;DHT22;7152;48.348;10.980;2022-11-10T06:58:56;8.60;99.90
14144;DHT22;7152;48.348;10.980;2022-11-10T07:01:21;8.50;99.90
14144;DHT22;7152;48.348;10.980;2022-11-10T07:03:51;8.50;99.90
14144;DHT22;7152;48.348;10.980;2022-11-10T07:06:18;8.40;99.90
14144;DHT22;7152;48.348;10.980;2022-11-10T07:08:44;8.40;99.90
14144;DHT22;7152;48.348;10.980;2022-11-10T07:11:10;8.40;99.90
14144;DHT22;7152;48.348;10.980;2022-11-10T07:13:36;8.40;99.90
14144;DHT22;7152;48.348;10.980;2022-11-10T07:16:10;8.40;99.90
14144;DHT22;7152;48.348;10.980;2022-11-10T07:18:36;8.40;99.90
14144;DHT22;7152;48.348;10.980;2022-11-10T07:21:03;8.40;99.90
14144;DHT22;7152;48.348;10.980;2022-11-10T07:23:29;8.40;99.90
14144;DHT22;7152;48.348;10.980;2022-11-10T07:25:55;8.50;99.90
14144;DHT22;7152;48.348;10.980;2022-11-10T07:28:23;8.50;99.90
14144;DHT22;7152;48.348;10.980;2022-11-10T07:30:48;8.50;99.90
14144;DHT22;7152;48.348;10.980;2022-11-10T07:33:14;8.50;99.90
14144;DHT22;7152;48.348;10.980;2022-11-10T07:35:40;8.50;99.90
14144;DHT22;7152;48.348;10.980;2022-11-10T07:38:10;8.60;99.90
14144;DHT22;7152;48.348;10.980;2022-11-10T07:40:37;8.60;99.90
14144;DHT22;7152;48.348;10.980;2022-11-10T07:43:03;8.60;99.90
14144;DHT22;7152;48.348;10.980;2022-11-10T07:45:30;8.70;99.90
14144;DHT22;7152;48.348;10.980;2022-11-10T07:48:04;8.70;99.90
14144;DHT22;7152;48.348;10.980;2022-11-10T07:50:31;8.80;99.90
14144;DHT22;7152;48.348;10.980;2022-11-10T07:53:02;8.80;99.90
14144;DHT22;7152;48.348;10.980;2022-11-10T07:55:28;8.80;99.90
14144;DHT22;7152;48.348;10.980;2022-11-10T07:57:57;8.90;99.90
14144;DHT22;7152;48.348;10.980;2022-11-10T08:00:23;9.00;99.90
14144;DHT22;7152;48.348;10.980;2022-11-10T08:02:48;9.00;99.90
14144;DHT22;7152;48.348;10.980;2022-11-10T08:05:15;9.10;99.90
14144;DHT22;7152;48.348;10.980;2022-11-10T08:07:41;9.10;99.90
14144;DHT22;7152;48.348;10.980;2022-11-10T08:10:07;9.10;99.90
14144;DHT22;7152;48.348;10.980;2022-11-10T08:12:33;9.20;99.90
14144;DHT22;7152;48.348;10.980;2022-11-10T08:14:59;9.20;99.90
14144;DHT22;7152;48.348;10.980;2022-11-10T08:17:25;9.20;99.90
14144;DHT22;7152;48.348;10.980;2022-11-10T08:19:50;9.30;99.90
14144;DHT22;7152;48.348;10.980;2022-11-10T08:22:16;9.30;99.90
14144;DHT22;7152;48.348;10.980;2022-11-10T08:24:42;9.40;99.90
14144;DHT22;7152;48.348;10.980;2022-11-10T08:27:07;9.40;99.90
14144;DHT22;7152;48.348;10.980;2022-11-10T08:29:34;9.50;99.90
14144;DHT22;7152;48.348;10.980;2022-11-10T08:31:59;9.50;99.90
14144;DHT22;7152;48.348;10.980;2022-11-10T08:34:25;9.50;99.90
14144;DHT22;7152;48.348;10.980;2022-11-10T08:36:51;9.60;99.90
14144;DHT22;7152;48.348;10.980;2022-11-10T08:39:17;9.70;99.90
14144;DHT22;7152;48.348;10.980;2022-11-10T08:41:43;9.70;99.90
14144;DHT22;7152;48.348;10.980;2022-11-10T08:44:09;9.80;99.90
14144;DHT22;7152;48.348;10.980;2022-11-10T08:46:34;9.80;99.90
14144;DHT22;7152;48.348;10.980;2022-11-10T08:49:00;9.80;99.90
14144;DHT22;7152;48.348;10.980;2022-11-10T08:51:25;9.90;99.90
14144;DHT22;7152;48.348;10.980;2022-11-10T08:53:51;9.90;99.90
14144;DHT22;7152;48.348;10.980;2022-11-10T08:56:17;10.00;99.90
14144;DHT22;7152;48.348;10.980;2022-11-10T08:58:42;10.00;99.90
14144;DHT22;7152;48.348;10.980;2022-11-10T09:01:09;10.10;99.90
14144;DHT22;7152;48.348;10.980;2022-11-10T09:03:36;10.20;99.90
14144;DHT22;7152;48.348;10.980;2022-11-10T09:06:01;10.20;99.90
14144;DHT22;7152;48.348;10.980;2022-11-10T09:08:27;10.30;99.90
14144;DHT22;7152;48.348;10.980;2022-11-10T09:10:53;10.30;99.90
14144;DHT22;7152;48.348;10.980;2022-11-10T09:13:19;10.40;99.90
14144;DHT22;7152;48.348;10.980;2022-11-10T09:15:47;10.50;99.90
14144;DHT22;7152;48.348;10.980;2022-11-10T09:18:13;10.60;99.90
14144;DHT22;7152;48.348;10.980;2022-11-10T09:20:40;10.70;99.90
14144;DHT22;7152;48.348;10.980;2022-11-10T09:23:07;10.80;99.90
14144;DHT22;7152;48.348;10.980;2022-11-10T09:25:34;11.00;99.90
14144;DHT22;7152;48.348;10.980;2022-11-10T09:27:59;11.20;99.90
14144;DHT22;7152;48.348;10.980;2022-11-10T09:30:25;11.30;99.90
14144;DHT22;7152;48.348;10.980;2022-11-10T09:32:55;11.60;99.90
14144;DHT22;7152;48.348;10.980;2022-11-10T09:35:21;11.70;99.90
14144;DHT22;7152;48.348;10.980;2022-11-10T09:37:46;11.90;99.90
14144;DHT22;7152;48.348;10.980;2022-11-10T09:40:19;12.10;99.90
14144;DHT22;7152;48.348;10.980;2022-11-10T09:42:47;12.10;99.90
14144;DHT22;7152;48.348;10.980;2022-11-10T09:47:53;12.00;99.90
14144;DHT22;7152;48.348;10.980;2022-11-10T09:50:38;11.90;99.90
14144;DHT22;7152;48.348;10.980;2022-11-10T09:53:11;11.70;99.90
14144;DHT22;7152;48.348;10.980;2022-11-10T09:55:50;11.60;99.90
14144;DHT22;7152;48.348;10.980;2022-11-10T09:58:22;11.40;99.90
14144;DHT22;7152;48.348;10.980;2022-11-10T10:00:55;11.30;99.90
14144;DHT22;7152;48.348;10.980;2022-11-10T10:03:25;11.20;99.90
14144;DHT22;7152;48.348;10.980;2022-11-10T10:06:11;11.20;99.90
14144;DHT22;7152;48.348;10.980;2022-11-10T10:14:41;11.20;99.90
14144;DHT22;7152;48.348;10.980;2022-11-10T10:18:02;11.10;99.90
14144;DHT22;7152;48.348;10.980;2022-11-10T10:25:30;11.10;99.90
14144;DHT22;7152;48.348;10.980;2022-11-10T10:30:43;11.20;99.90
14144;DHT22;7152;48.348;10.980;2022-11-10T10:33:20;11.30;99.90
14144;DHT22;7152;48.348;10.980;2022-11-10T10:35:48;11.40;99.90
14144;DHT22;7152;48.348;10.980;2022-11-10T10:38:36;11.50;99.90
14144;DHT22;7152;48.348;10.980;2022-11-10T10:41:16;11.50;99.90
14144;DHT22;7152;48.348;10.980;2022-11-10T10:43:49;11.50;99.90
14144;DHT22;7152;48.348;10.980;2022-11-10T10:46:16;11.60;99.90
14144;DHT22;7152;48.348;10.980;2022-11-10T10:48:44;11.70;99.90
14144;DHT22;7152;48.348;10.980;2022-11-10T10:51:27;11.80;99.90
14144;DHT22;7152;48.348;10.980;2022-11-10T10:53:53;11.90;99.90
14144;DHT22;7152;48.348;10.980;2022-11-10T10:56:22;12.00;99.90
14144;DHT22;7152;48.348;10.980;2022-11-10T10:58:57;12.10;99.90
14144;DHT22;7152;48.348;10.980;2022-11-10T11:01:32;12.10;99.90
14144;DHT22;7152;48.348;10.980;2022-11-10T11:03:59;11.90;99.90
14144;DHT22;7152;48.348;10.980;2022-11-10T11:06:27;11.90;99.90
14144;DHT22;7152;48.348;10.980;2022-11-10T11:08:54;11.90;99.90
14144;DHT22;7152;48.348;10.980;2022-11-10T11:11:30;11.80;99.90
14144;DHT22;7152;48.348;10.980;2022-11-10T11:14:26;11.90;99.90
14144;DHT22;7152;48.348;10.980;2022-11-10T11:16:58;12.00;99.90
14144;DHT22;7152;48.348;10.980;2022-11-10T11:19:27;12.00;99.90
14144;DHT22;7152;48.348;10.980;2022-11-10T11:27:27;12.50;99.90
14144;DHT22;7152;48.348;10.980;2022-11-10T11:35:49;13.30;99.90
14144;DHT22;7152;48.348;10.980;2022-11-10T11:38:29;13.60;99.90
14144;DHT22;7152;48.348;10.980;2022-11-10T11:41:10;13.90;99.90
14144;DHT22;7152;48.348;10.980;2022-11-10T11:43:43;13.90;99.90
14144;DHT22;7152;48.348;10.980;2022-11-10T11:46:48;13.90;99.90
14144;DHT22;7152;48.348;10.980;2022-11-10T11:52:41;13.70;99.90
14144;DHT22;7152;48.348;10.980;2022-11-10T11:55:13;13.60;99.90
14144;DHT22;7152;48.348;10.980;2022-11-10T12:06:40;14.10;99.90
14144;DHT22;7152;48.348;10.980;2022-11-10T12:28:51;12.30;99.90
14144;DHT22;7152;48.348;10.980;2022-11-10T12:31:22;12.10;99.90
14144;DHT22;7152;48.348;10.980;2022-11-10T12:33:56;12.10;99.90
14144;DHT22;7152;48.348;10.980;2022-11-10T12:36:26;12.20;99.90
14144;DHT22;7152;48.348;10.980;2022-11-10T12:41:45;12.90;99.90
14144;DHT22;7152;48.348;10.980;2022-11-10T12:46:59;13.60;99.90
14144;DHT22;7152;48.348;10.980;2022-11-10T12:52:36;13.90;99.90
14144;DHT22;7152;48.348;10.980;2022-11-10T12:55:03;14.20;99.90
14144;DHT22;7152;48.348;10.980;2022-11-10T12:57:30;14.40;99.90
14144;DHT22;7152;48.348;10.980;2022-11-10T13:00:06;14.50;99.90
14144;DHT22;7152;48.348;10.980;2022-11-10T13:07:44;15.40;99.90
14144;DHT22;7152;48.348;10.980;2022-11-10T13:10:29;15.70;99.90
14144;DHT22;7152;48.348;10.980;2022-11-10T13:18:03;15.70;99.90
14144;DHT22;7152;48.348;10.980;2022-11-10T13:26:03;14.80;99.90
14144;DHT22;7152;48.348;10.980;2022-11-10T13:34:25;13.90;99.90
14144;DHT22;7152;48.348;10.980;2022-11-10T13:36:52;13.60;99.90
14144;DHT22;7152;48.348;10.980;2022-11-10T13:39:25;13.40;99.90
14144;DHT22;7152;48.348;10.980;2022-11-10T13:44:37;12.90;99.90
14144;DHT22;7152;48.348;10.980;2022-11-10T13:47:18;12.80;99.90
14144;DHT22;7152;48.348;10.980;2022-11-10T13:58:40;12.40;99.90
14144;DHT22;7152;48.348;10.980;2022-11-10T14:06:15;12.10;99.90
14144;DHT22;7152;48.348;10.980;2022-11-10T14:09:04;12.10;99.90
14144;DHT22;7152;48.348;10.980;2022-11-10T14:11:44;12.10;99.90
14144;DHT22;7152;48.348;10.980;2022-11-10T14:14:28;12.10;99.90
14144;DHT22;7152;48.348;10.980;2022-11-10T14:16:57;12.10;99.90
14144;DHT22;7152;48.348;10.980;2022-11-10T14:19:30;12.10;99.90
14144;DHT22;7152;48.348;10.980;2022-11-10T14:22:00;12.10;99.90
14144;DHT22;7152;48.348;10.980;2022-11-10T14:24:31;12.10;99.90
14144;DHT22;7152;48.348;10.980;2022-11-10T14:27:04;12.10;99.90
14144;DHT22;7152;48.348;10.980;2022-11-10T14:29:35;12.00;99.90
14144;DHT22;7152;48.348;10.980;2022-11-10T14:32:10;11.90;99.90
14144;DHT22;7152;48.348;10.980;2022-11-10T14:34:47;11.80;99.90
14144;DHT22;7152;48.348;10.980;2022-11-10T14:37:20;11.80;99.90
14144;DHT22;7152;48.348;10.980;2022-11-10T14:39:49;11.70;99.90
14144;DHT22;7152;48.348;10.980;2022-11-10T14:42:22;11.70;99.90
14144;DHT22;7152;48.348;10.980;2022-11-10T14:44:48;11.70;99.90
14144;DHT22;7152;48.348;10.980;2022-11-10T14:47:26;11.70;99.90
14144;DHT22;7152;48.348;10.980;2022-11-10T14:53:00;11.60;99.90
14144;DHT22;7152;48.348;10.980;2022-11-10T14:55:30;11.60;99.90
14144;DHT22;7152;48.348;10.980;2022-11-10T15:00:26;11.40;99.90
14144;DHT22;7152;48.348;10.980;2022-11-10T15:02:56;11.30;99.90
14144;DHT22;7152;48.348;10.980;2022-11-10T15:05:23;11.30;99.90
14144;DHT22;7152;48.348;10.980;2022-11-10T15:07:56;11.20;99.90
14144;DHT22;7152;48.348;10.980;2022-11-10T15:16:20;10.90;99.90
14144;DHT22;7152;48.348;10.980;2022-11-10T15:18:47;10.90;99.90
14144;DHT22;7152;48.348;10.980;2022-11-10T15:21:16;10.80;99.90
14144;DHT22;7152;48.348;10.980;2022-11-10T15:23:45;10.70;99.90
14144;DHT22;7152;48.348;10.980;2022-11-10T15:26:25;10.60;99.90
14144;DHT22;7152;48.348;10.980;2022-11-10T15:28:52;10.50;99.90
14144;DHT22;7152;48.348;10.980;2022-11-10T15:31:31;10.40;99.90
14144;DHT22;7152;48.348;10.980;2022-11-10T15:33:59;10.40;99.90
14144;DHT22;7152;48.348;10.980;2022-11-10T15:36:34;10.30;99.90
14144;DHT22;7152;48.348;10.980;2022-11-10T15:41:47;10.10;99.90
14144;DHT22;7152;48.348;10.980;2022-11-10T15:44:20;10.00;99.90
14144;DHT22;7152;48.348;10.980;2022-11-10T15:46:47;9.90;99.90
14144;DHT22;7152;48.348;10.980;2022-11-10T15:49:34;9.90;99.90
14144;DHT22;7152;48.348;10.980;2022-11-10T15:52:10;9.70;99.90
14144;DHT22;7152;48.348;10.980;2022-11-10T15:54:36;9.70;99.90
14144;DHT22;7152;48.348;10.980;2022-11-10T15:57:02;9.60;99.90
14144;DHT22;7152;48.348;10.980;2022-11-10T15:59:28;9.50;99.90
14144;DHT22;7152;48.348;10.980;2022-11-10T16:01:54;9.50;99.90
14144;DHT22;7152;48.348;10.980;2022-11-10T16:04:20;9.40;99.90
14144;DHT22;7152;48.348;10.980;2022-11-10T16:06:45;9.30;99.90
14144;DHT22;7152;48.348;10.980;2022-11-10T16:09:12;9.20;99.90
14144;DHT22;7152;48.348;10.980;2022-11-10T16:11:41;9.20;99.90
14144;DHT22;7152;48.348;10.980;2022-11-10T16:14:15;9.10;99.90
14144;DHT22;7152;48.348;10.980;2022-11-10T16:16:42;9.00;99.90
14144;DHT22;7152;48.348;10.980;2022-11-10T16:19:09;9.00;99.90
14144;DHT22;7152;48.348;10.980;2022-11-10T16:21:35;8.90;99.90
14144;DHT22;7152;48.348;10.980;2022-11-10T16:24:01;8.90;99.90
14144;DHT22;7152;48.348;10.980;2022-11-10T16:26:27;8.80;99.90
14144;DHT22;7152;48.348;10.980;2022-11-10T16:28:53;8.80;99.90
14144;DHT22;7152;48.348;10.980;2022-11-10T16:31:20;8.70;99.90
14144;DHT22;7152;48.348;10.980;2022-11-10T16:33:46;8.70;99.90
14144;DHT22;7152;48.348;10.980;2022-11-10T16:36:29;8.60;99.90
14144;DHT22;7152;48.348;10.980;2022-11-10T16:38:56;8.60;99.90
14144;DHT22;7152;48.348;10.980;2022-11-10T16:41:25;8.60;99.90
14144;DHT22;7152;48.348;10.980;2022-11-10T16:43:51;8.50;99.90
14144;DHT22;7152;48.348;10.980;2022-11-10T16:46:25;8.50;99.90
14144;DHT22;7152;48.348;10.980;2022-11-10T16:48:59;8.50;99.90
14144;DHT22;7152;48.348;10.980;2022-11-10T16:51:39;8.40;99.90
14144;DHT22;7152;48.348;10.980;2022-11-10T16:54:04;8.40;99.90
14144;DHT22;7152;48.348;10.980;2022-11-10T16:56:30;8.40;99.90
14144;DHT22;7152;48.348;10.980;2022-11-10T16:58:56;8.30;99.90
14144;DHT22;7152;48.348;10.980;2022-11-10T17:01:27;8.30;99.90
14144;DHT22;7152;48.348;10.980;2022-11-10T17:03:55;8.20;99.90
14144;DHT22;7152;48.348;10.980;2022-11-10T17:06:23;8.20;99.90
14144;DHT22;7152;48.348;10.980;2022-11-10T17:08:52;8.20;99.90
14144;DHT22;7152;48.348;10.980;2022-11-10T17:11:19;8.20;99.90
14144;DHT22;7152;48.348;10.980;2022-11-10T17:13:44;8.20;99.90
14144;DHT22;7152;48.348;10.980;2022-11-10T17:16:33;8.10;99.90
14144;DHT22;7152;48.348;10.980;2022-11-10T17:19:00;8.10;99.90
14144;DHT22;7152;48.348;10.980;2022-11-10T17:21:28;8.10;99.90
14144;DHT22;7152;48.348;10.980;2022-11-10T17:23:55;8.00;99.90
14144;DHT22;7152;48.348;10.980;2022-11-10T17:26:21;8.00;99.90
14144;DHT22;7152;48.348;10.980;2022-11-10T17:28:46;8.00;99.90
14144;DHT22;7152;48.348;10.980;2022-11-10T17:31:12;8.00;99.90
14144;DHT22;7152;48.348;10.980;2022-11-10T17:33:39;7.90;99.90
14144;DHT22;7152;48.348;10.980;2022-11-10T17:36:10;7.90;99.90
14144;DHT22;7152;48.348;10.980;2022-11-10T17:38:37;7.90;99.90
14144;DHT22;7152;48.348;10.980;2022-11-10T17:41:03;7.80;99.90
14144;DHT22;7152;48.348;10.980;2022-11-10T17:43:28;7.80;99.90
14144;DHT22;7152;48.348;10.980;2022-11-10T17:45:54;7.80;99.90
14144;DHT22;7152;48.348;10.980;2022-11-10T17:48:19;7.80;99.90
14144;DHT22;7152;48.348;10.980;2022-11-10T17:50:45;7.80;99.90
14144;DHT22;7152;48.348;10.980;2022-11-10T17:53:23;7.80;99.90